Time;durP1;ratioP1;P1;durP2;ratioP2;P2;SDS_P1;SDS_P2;PMS_P1;PMS_P2;Temp;Humidity;BMP_temperature;BMP_pressure;BME280_temperature;BME280_humidity;BME280_pressure;Samples;Min_cycle;Max_cycle;Signal;HPM_P1;HPM_P2
2023/08/20 00:00:16;;;;;;;;;;;;;;;;;;5044511;28;19954;-65
2023/08/20 00:02:41;;;;;;;;;;;;;;;;;;5049245;28;19924;-63
2023/08/20 00:05:07;;;;;;;;;;;;;;;;;;5045820;28;19921;-63
2023/08/20 00:07:33;;;;;;;;;;;;;;;;;;5048167;28;19925;-64
2023/08/20 00:09:59;;;;;;;;;;;;;;;;;;5046161;28;20286;-63
2023/08/20 00:12:26;;;;;;;;;;;;;;;;;;5047045;28;19929;-64
2023/08/20 00:14:52;;;;;;;;;;;;;;;;;;5048088;28;19921;-63
2023/08/20 00:17:18;;;;;;;;;;;;;;;;;;5037211;28;20298;-64
2023/08/20 00:19:43;;;;;;;;;;;;;;;;;;5048324;28;19924;-65
2023/08/20 00:22:09;;;;;;;;;;;;;;;;;;5047959;28;19924;-66
2023/08/20 00:24:35;;;;;;;;;;;;;;;;;;5049354;28;20411;-65
2023/08/20 00:27:01;;;;;;;;;;;;;;;;;;5048374;28;19924;-63
2023/08/20 00:29:27;;;;;;;;;;;;;;;;;;5045284;28;19932;-65
2023/08/20 00:31:53;;;;;;;;;;;;;;;;;;5031155;28;19924;-65
2023/08/20 00:34:19;;;;;;;;;;;;;;;;;;5049213;28;19920;-65
2023/08/20 00:36:45;;;;;;;;;;;;;;;;;;5047825;28;19931;-65
2023/08/20 00:39:11;;;;;;;;;;;;;;;;;;5049094;28;19952;-63
2023/08/20 00:41:37;;;;;;;;;;;;;;;;;;5037305;28;19973;-65
2023/08/20 00:44:03;;;;;;;;;;;;;;;;;;5044064;28;20003;-65
2023/08/20 00:46:29;;;;;;;;;;;;;;;;;;5045538;28;19929;-65
2023/08/20 00:48:55;;;;;;;;;;;;;;;;;;5048945;28;19929;-65
2023/08/20 00:51:21;;;;;;;;;;;;;;;;;;5050889;28;19921;-66
2023/08/20 00:53:47;;;;;;;;;;;;;;;;;;5048574;28;20397;-66
2023/08/20 00:56:13;;;;;;;;;;;;;;;;;;5051188;28;19921;-64
2023/08/20 00:58:38;;;;;;;;;;;;;;;;;;5047809;28;20483;-64
2023/08/20 01:01:04;;;;;;;;;;;;;;;;;;5051084;28;20127;-64
2023/08/20 01:03:30;;;;;;;;;;;;;;;;;;5045206;28;19927;-65
2023/08/20 01:05:56;;;;;;;;;;;;;;;;;;5049247;28;19968;-64
2023/08/20 01:08:22;;;;;;;;;;;;;;;;;;5051786;28;20007;-64
2023/08/20 01:10:49;;;;;;;;;;;;;;;;;;5053054;28;20795;-63
2023/08/20 01:13:14;;;;;;;;;;;;;;;;;;5052517;28;20397;-65
2023/08/20 01:15:40;;;;;;;;;;;;;;;;;;5034559;28;19924;-65
2023/08/20 01:18:06;;;;;;;;;;;;;;;;;;5042511;28;19928;-64
2023/08/20 01:20:32;;;;;;;;;;;;;;;;;;5041419;28;19928;-65
2023/08/20 01:22:58;;;;;;;;;;;;;;;;;;5052193;28;19960;-65
2023/08/20 01:25:24;;;;;;;;;;;;;;;;;;5050194;28;20007;-64
2023/08/20 01:27:50;;;;;;;;;;;;;;;;;;5045449;28;20016;-65
2023/08/20 01:30:16;;;;;;;;;;;;;;;;;;5050517;28;20368;-64
2023/08/20 01:32:42;;;;;;;;;;;;;;;;;;5050899;28;20689;-64
2023/08/20 01:35:08;;;;;;;;;;;;;;;;;;5049871;28;19925;-64
2023/08/20 01:37:34;;;;;;;;;;;;;;;;;;5029389;28;19976;-63
2023/08/20 01:40:00;;;;;;;;;;;;;;;;;;5049621;28;20015;-64
2023/08/20 01:42:25;;;;;;;;;;;;;;;;;;5048001;28;19924;-65
2023/08/20 01:44:51;;;;;;;;;;;;;;;;;;5043624;28;19929;-65
2023/08/20 01:47:17;;;;;;;;;;;;;;;;;;5050616;28;20382;-63
2023/08/20 01:49:43;;;;;;;;;;;;;;;;;;5051106;28;19921;-64
2023/08/20 01:52:09;;;;;;;;;;;;;;;;;;5047537;28;19968;-64
2023/08/20 01:54:35;;;;;;;;;;;;;;;;;;5052706;28;20007;-65
2023/08/20 01:57:01;;;;;;;;;;;;;;;;;;5050582;28;19921;-64
2023/08/20 01:59:27;;;;;;;;;;;;;;;;;;5034495;28;20019;-65
2023/08/20 02:01:53;;;;;;;;;;;;;;;;;;5047371;28;20081;-65
2023/08/20 02:04:19;;;;;;;;;;;;;;;;;;5043782;28;19979;-65
2023/08/20 02:06:45;;;;;;;;;;;;;;;;;;5046041;28;19929;-64
2023/08/20 02:09:11;;;;;;;;;;;;;;;;;;5050245;28;19964;-64
2023/08/20 02:11:37;;;;;;;;;;;;;;;;;;5050579;28;19924;-65
2023/08/20 02:14:03;;;;;;;;;;;;;;;;;;5049269;28;19921;-64
2023/08/20 02:16:29;;;;;;;;;;;;;;;;;;5049400;28;19921;-65
2023/08/20 02:18:54;;;;;;;;;;;;;;;;;;5044705;28;20971;-64
2023/08/20 02:21:20;;;;;;;;;;;;;;;;;;5051908;28;19925;-64
2023/08/20 02:23:46;;;;;;;;;;;;;;;;;;5050146;28;20375;-64
2023/08/20 02:26:12;;;;;;;;;;;;;;;;;;5050685;28;20015;-64
2023/08/20 02:28:38;;;;;;;;;;;;;;;;;;5042040;28;20602;-63
2023/08/20 02:31:04;;;;;;;;;;;;;;;;;;5047927;28;19925;-64
2023/08/20 02:33:30;;;;;;;;;;;;;;;;;;5049622;28;20379;-65
2023/08/20 02:35:56;;;;;;;;;;;;;;;;;;5035421;28;20003;-63
2023/08/20 02:38:22;;;;;;;;;;;;;;;;;;5048509;28;19927;-64
2023/08/20 02:40:48;;;;;;;;;;;;;;;;;;5040302;28;19943;-65
2023/08/20 02:43:14;;;;;;;;;;;;;;;;;;5046294;28;19921;-65
2023/08/20 02:45:41;;;;;;;;;;;;;;;;;;5041064;28;20008;-63
2023/08/20 02:48:07;;;;;;;;;;;;;;;;;;5051897;28;19929;-64
2023/08/20 02:50:32;;;;;;;;;;;;;;;;;;5047976;28;19927;-64
2023/08/20 02:52:58;;;;;;;;;;;;;;;;;;5070028;23;19929;-60
2023/08/20 02:55:24;;;;;;;;;;;;;;;;;;5047517;28;19991;-60
2023/08/20 02:57:50;;;;;;;;;;;;;;;;;;5050441;28;19924;-60
2023/08/20 03:00:16;;;;;;;;;;;;;;;;;;5038187;28;19960;-60
2023/08/20 03:02:42;;;;;;;;;;;;;;;;;;5038937;28;19934;-60
2023/08/20 03:05:08;;;;;;;;;;;;;;;;;;5047039;28;19921;-60
2023/08/20 03:07:34;;;;;;;;;;;;;;;;;;5050348;28;20638;-60
2023/08/20 03:10:00;;;;;;;;;;;;;;;;;;5050824;28;19966;-60
2023/08/20 03:12:26;;;;;;;;;;;;;;;;;;5050224;28;19924;-60
2023/08/20 03:14:52;;;;;;;;;;;;;;;;;;5050556;28;19931;-60
2023/08/20 03:17:18;;;;;;;;;;;;;;;;;;5047460;28;19964;-60
2023/08/20 03:19:44;;;;;;;;;;;;;;;;;;5048939;28;20466;-60
2023/08/20 03:22:09;;;;;;;;;;;;;;;;;;5046099;28;19951;-60
2023/08/20 03:24:35;;;;;;;;;;;;;;;;;;5050255;28;19968;-60
2023/08/20 03:27:02;;;;;;;;;;;;;;;;;;5048739;28;19974;-60
2023/08/20 03:29:28;;;;;;;;;;;;;;;;;;5050132;28;19973;-60
2023/08/20 03:31:54;;;;;;;;;;;;;;;;;;5049325;28;19924;-60
2023/08/20 03:34:20;;;;;;;;;;;;;;;;;;5050830;28;19944;-60
2023/08/20 03:36:46;;;;;;;;;;;;;;;;;;5049150;28;19921;-60
2023/08/20 03:39:13;;;;;;;;;;;;;;;;;;5050159;28;19931;-60
2023/08/20 03:41:38;;;;;;;;;;;;;;;;;;5048650;28;19925;-60
2023/08/20 03:44:04;;;;;;;;;;;;;;;;;;5048927;28;20408;-60
2023/08/20 03:46:30;;;;;;;;;;;;;;;;;;5041573;28;19925;-60
2023/08/20 03:48:56;;;;;;;;;;;;;;;;;;5049339;28;19936;-60
2023/08/20 03:51:22;;;;;;;;;;;;;;;;;;5048140;28;20259;-60
2023/08/20 03:53:48;;;;;;;;;;;;;;;;;;5048930;28;19920;-60
2023/08/20 03:56:14;;;;;;;;;;;;;;;;;;5045848;28;19936;-60
2023/08/20 03:58:40;;;;;;;;;;;;;;;;;;5047754;28;20341;-60
2023/08/20 04:01:06;;;;;;;;;;;;;;;;;;5047750;28;19925;-61
2023/08/20 04:03:32;;;;;;;;;;;;;;;;;;5051124;28;20001;-60
2023/08/20 04:05:58;;;;;;;;;;;;;;;;;;5047877;28;19935;-60
2023/08/20 04:08:24;;;;;;;;;;;;;;;;;;5044454;28;19929;-60
2023/08/20 04:10:50;;;;;;;;;;;;;;;;;;5051303;28;20270;-60
2023/08/20 04:13:16;;;;;;;;;;;;;;;;;;5031717;28;19921;-60
2023/08/20 04:15:42;;;;;;;;;;;;;;;;;;5050237;28;19921;-60
2023/08/20 04:18:08;;;;;;;;;;;;;;;;;;5031957;28;19931;-60
2023/08/20 04:20:33;;;;;;;;;;;;;;;;;;5051372;28;19947;-60
2023/08/20 04:22:59;;;;;;;;;;;;;;;;;;5043507;28;20389;-60
2023/08/20 04:25:25;;;;;;;;;;;;;;;;;;5049497;28;19921;-60
2023/08/20 04:27:51;;;;;;;;;;;;;;;;;;5048926;28;20278;-60
2023/08/20 04:30:17;;;;;;;;;;;;;;;;;;5035596;28;19920;-60
2023/08/20 04:32:43;;;;;;;;;;;;;;;;;;5049983;28;19967;-60
2023/08/20 04:35:10;;;;;;;;;;;;;;;;;;5042829;28;20267;-60
2023/08/20 04:37:36;;;;;;;;;;;;;;;;;;5050139;28;20412;-60
2023/08/20 04:40:04;;;;;;;;;;;;;;;;;;5048543;28;19928;-60
2023/08/20 04:42:30;;;;;;;;;;;;;;;;;;5050829;28;20008;-60
2023/08/20 04:44:56;;;;;;;;;;;;;;;;;;5039828;28;20007;-60
2023/08/20 04:47:22;;;;;;;;;;;;;;;;;;5050240;28;19929;-60
2023/08/20 04:49:48;;;;;;;;;;;;;;;;;;5043181;28;19947;-60
2023/08/20 04:52:13;;;;;;;;;;;;;;;;;;5049107;28;19949;-60
2023/08/20 04:54:39;;;;;;;;;;;;;;;;;;5051500;28;19963;-60
2023/08/20 04:57:05;;;;;;;;;;;;;;;;;;5043940;28;20003;-60
2023/08/20 04:59:31;;;;;;;;;;;;;;;;;;5051261;28;19921;-60
2023/08/20 05:01:57;;;;;;;;;;;;;;;;;;5047101;28;20282;-60
2023/08/20 05:04:23;;;;;;;;;;;;;;;;;;5033708;28;19924;-60
2023/08/20 05:06:49;;;;;;;;;;;;;;;;;;5029857;28;19994;-60
2023/08/20 05:09:16;;;;;;;;;;;;;;;;;;5049994;28;20037;-60
2023/08/20 05:11:41;;;;;;;;;;;;;;;;;;5041631;28;19956;-60
2023/08/20 05:14:07;;;;;;;;;;;;;;;;;;5049970;28;19968;-60
2023/08/20 05:16:33;;;;;;;;;;;;;;;;;;5052266;28;19925;-60
2023/08/20 05:18:59;;;;;;;;;;;;;;;;;;5051119;28;20358;-60
2023/08/20 05:21:25;;;;;;;;;;;;;;;;;;5032453;28;19978;-60
2023/08/20 05:23:51;;;;;;;;;;;;;;;;;;5054138;28;20013;-60
2023/08/20 05:26:17;;;;;;;;;;;;;;;;;;5052700;28;19924;-60
2023/08/20 05:28:43;;;;;;;;;;;;;;;;;;5021344;28;19963;-60
2023/08/20 05:31:10;;;;;;;;;;;;;;;;;;5052342;28;20603;-61
2023/08/20 05:33:36;;;;;;;;;;;;;;;;;;5052650;28;19929;-60
2023/08/20 05:36:02;;;;;;;;;;;;;;;;;;5046256;28;20603;-61
2023/08/20 05:38:28;;;;;;;;;;;;;;;;;;5049846;28;19931;-61
2023/08/20 05:40:54;;;;;;;;;;;;;;;;;;5047411;28;20007;-60
2023/08/20 05:43:20;;;;;;;;;;;;;;;;;;5049084;28;19927;-60
2023/08/20 05:45:45;;;;;;;;;;;;;;;;;;5052403;28;20035;-60
2023/08/20 05:48:11;;;;;;;;;;;;;;;;;;5040820;28;19929;-60
2023/08/20 05:50:37;;;;;;;;;;;;;;;;;;5053604;28;19921;-60
2023/08/20 05:53:03;;;;;;;;;;;;;;;;;;5040619;28;20360;-61
2023/08/20 05:55:29;;;;;;;;;;;;;;;;;;5052387;28;19925;-60
2023/08/20 05:57:55;;;;;;;;;;;;;;;;;;5049738;28;19986;-61
2023/08/20 06:00:21;;;;;;;;;;;;;;;;;;5043280;28;19955;-61
2023/08/20 06:02:47;;;;;;;;;;;;;;;;;;5046668;28;19925;-61
2023/08/20 06:05:13;;;;;;;;;;;;;;;;;;5033877;28;19929;-61
2023/08/20 06:07:40;;;;;;;;;;;;;;;;;;5050556;28;20015;-61
2023/08/20 06:10:06;;;;;;;;;;;;;;;;;;5042615;28;19921;-61
2023/08/20 06:12:32;;;;;;;;;;;;;;;;;;5036920;28;20417;-61
2023/08/20 06:14:58;;;;;;;;;;;;;;;;;;5051330;28;19921;-61
2023/08/20 06:17:24;;;;;;;;;;;;;;;;;;5048807;28;19925;-61
2023/08/20 06:19:49;;;;;;;;;;;;;;;;;;5050749;28;20046;-61
2023/08/20 06:22:15;;;;;;;;;;;;;;;;;;5050762;28;20008;-61
2023/08/20 06:24:41;;;;;;;;;;;;;;;;;;5051326;28;19931;-61
2023/08/20 06:27:07;;;;;;;;;;;;;;;;;;5046248;28;20413;-61
2023/08/20 06:29:33;;;;;;;;;;;;;;;;;;5050374;28;19925;-61
2023/08/20 06:31:59;;;;;;;;;;;;;;;;;;5047902;28;19951;-61
2023/08/20 06:34:25;;;;;;;;;;;;;;;;;;5049806;28;19931;-61
2023/08/20 06:36:51;;;;;;;;;;;;;;;;;;5049095;28;21667;-61
2023/08/20 06:39:18;;;;;;;;;;;;;;;;;;5046445;28;19921;-61
2023/08/20 06:41:44;;;;;;;;;;;;;;;;;;5049415;28;19978;-61
2023/08/20 06:44:10;;;;;;;;;;;;;;;;;;5014245;28;20002;-61
2023/08/20 06:46:36;;;;;;;;;;;;;;;;;;5048430;28;19928;-61
2023/08/20 06:49:02;;;;;;;;;;;;;;;;;;5036124;28;19925;-61
2023/08/20 06:51:28;;;;;;;;;;;;;;;;;;5043341;28;20640;-61
2023/08/20 06:53:55;;;;;;;;;;;;;;;;;;5048081;28;19925;-61
2023/08/20 06:56:21;;;;;;;;;;;;;;;;;;5050076;28;19924;-61
2023/08/20 06:58:47;;;;;;;;;;;;;;;;;;5040584;28;20016;-61
2023/08/20 07:01:12;;;;;;;;;;;;;;;;;;5044490;28;19921;-62
2023/08/20 07:03:38;;;;;;;;;;;;;;;;;;5038964;28;19924;-59
2023/08/20 07:06:04;;;;;;;;;;;;;;;;;;5048995;28;19927;-60
2023/08/20 07:08:30;;;;;;;;;;;;;;;;;;5045474;28;19979;-60
2023/08/20 07:10:56;;;;;;;;;;;;;;;;;;5050026;28;19921;-60
2023/08/20 07:13:22;;;;;;;;;;;;;;;;;;5049428;28;19925;-60
2023/08/20 07:15:48;;;;;;;;;;;;;;;;;;5040539;28;19921;-60
2023/08/20 07:18:15;;;;;;;;;;;;;;;;;;5049477;28;22581;-60
2023/08/20 07:20:41;;;;;;;;;;;;;;;;;;5045216;28;19920;-60
2023/08/20 07:23:08;;;;;;;;;;;;;;;;;;5042602;28;19927;-60
2023/08/20 07:25:34;;;;;;;;;;;;;;;;;;5033738;28;19929;-60
2023/08/20 07:28:00;;;;;;;;;;;;;;;;;;5046239;28;19921;-60
2023/08/20 07:30:26;;;;;;;;;;;;;;;;;;5050779;28;20329;-60
2023/08/20 07:32:52;;;;;;;;;;;;;;;;;;5050265;28;19928;-61
2023/08/20 07:35:18;;;;;;;;;;;;;;;;;;5026536;28;20381;-61
2023/08/20 07:37:46;;;;;;;;;;;;;;;;;;5041219;28;19920;-61
2023/08/20 07:40:12;;;;;;;;;;;;;;;;;;5051384;28;19928;-60
2023/08/20 07:42:38;;;;;;;;;;;;;;;;;;5051664;28;19947;-60
2023/08/20 07:45:04;;;;;;;;;;;;;;;;;;5051416;28;19928;-61
2023/08/20 07:47:30;;;;;;;;;;;;;;;;;;5051595;28;19921;-61
2023/08/20 07:49:56;;;;;;;;;;;;;;;;;;5036727;28;19948;-61
2023/08/20 07:52:22;;;;;;;;;;;;;;;;;;5031976;28;20570;-61
2023/08/20 07:54:48;;;;;;;;;;;;;;;;;;5032374;28;19925;-61
2023/08/20 07:57:14;;;;;;;;;;;;;;;;;;5031530;28;19921;-61
2023/08/20 07:59:40;;;;;;;;;;;;;;;;;;5031832;28;19921;-61
2023/08/20 08:02:06;;;;;;;;;;;;;;;;;;5031459;28;19925;-61
2023/08/20 08:04:32;;;;;;;;;;;;;;;;;;5031485;28;20351;-61
2023/08/20 08:06:58;;;;;;;;;;;;;;;;;;5033100;28;19921;-61
2023/08/20 08:09:24;;;;;;;;;;;;;;;;;;5045357;28;19925;-61
2023/08/20 08:11:49;;;;;;;;;;;;;;;;;;5032223;28;20405;-61
2023/08/20 08:14:15;;;;;;;;;;;;;;;;;;5031779;28;19929;-61
2023/08/20 08:16:41;;;;;;;;;;;;;;;;;;5036119;28;19931;-61
2023/08/20 08:19:07;;;;;;;;;;;;;;;;;;5054306;28;20370;-61
2023/08/20 08:21:33;;;;;;;;;;;;;;;;;;5033595;28;20023;-61
2023/08/20 08:23:59;;;;;;;;;;;;;;;;;;5049003;28;20336;-61
2023/08/20 08:26:25;;;;;;;;;;;;;;;;;;5039324;28;19929;-61
2023/08/20 08:28:51;;;;;;;;;;;;;;;;;;5019580;28;19974;-61
2023/08/20 08:31:17;;;;;;;;;;;;;;;;;;5050661;28;19925;-60
2023/08/20 08:33:43;;;;;;;;;;;;;;;;;;5053654;28;19960;-61
2023/08/20 08:36:09;;;;;;;;;;;;;;;;;;5052948;28;20305;-61
2023/08/20 08:38:36;;;;;;;;;;;;;;;;;;5048019;28;19927;-61
2023/08/20 08:41:01;;;;;;;;;;;;;;;;;;5051380;28;20000;-61
2023/08/20 08:43:27;;;;;;;;;;;;;;;;;;5036165;28;19921;-60
2023/08/20 08:45:53;;;;;;;;;;;;;;;;;;5049196;28;19929;-61
2023/08/20 08:48:19;;;;;;;;;;;;;;;;;;5053507;28;20270;-61
2023/08/20 08:50:45;;;;;;;;;;;;;;;;;;5041743;28;19959;-60
2023/08/20 08:53:11;;;;;;;;;;;;;;;;;;5052738;28;20538;-60
2023/08/20 08:55:37;;;;;;;;;;;;;;;;;;5051061;28;19928;-60
2023/08/20 08:58:03;;;;;;;;;;;;;;;;;;5050323;28;19931;-61
2023/08/20 09:00:31;;;;;;;;;;;;;;;;;;5046691;28;20009;-60
2023/08/20 09:02:57;;;;;;;;;;;;;;;;;;5052161;28;19924;-61
2023/08/20 09:05:22;;;;;;;;;;;;;;;;;;5052553;28;19950;-61
2023/08/20 09:07:49;;;;;;;;;;;;;;;;;;5049796;28;19972;-60
2023/08/20 09:10:15;;;;;;;;;;;;;;;;;;5040268;28;19928;-61
2023/08/20 09:12:41;;;;;;;;;;;;;;;;;;5050427;28;19921;-60
2023/08/20 09:15:06;;;;;;;;;;;;;;;;;;5048943;28;19933;-61
2023/08/20 09:17:32;;;;;;;;;;;;;;;;;;5042990;28;20382;-61
2023/08/20 09:19:58;;;;;;;;;;;;;;;;;;5042523;28;19932;-60
2023/08/20 09:22:24;;;;;;;;;;;;;;;;;;5049028;28;19921;-61
2023/08/20 09:24:50;;;;;;;;;;;;;;;;;;5046141;28;19970;-60
2023/08/20 09:27:16;;;;;;;;;;;;;;;;;;5049531;28;20004;-61
2023/08/20 09:29:42;;;;;;;;;;;;;;;;;;5051910;28;19925;-61
2023/08/20 09:32:08;;;;;;;;;;;;;;;;;;5046362;28;19924;-61
2023/08/20 09:34:34;;;;;;;;;;;;;;;;;;5048388;28;19929;-61
2023/08/20 09:36:59;;;;;;;;;;;;;;;;;;5050159;28;19975;-61
2023/08/20 09:39:25;;;;;;;;;;;;;;;;;;5052034;28;19931;-61
2023/08/20 09:41:51;;;;;;;;;;;;;;;;;;5052028;28;19999;-61
2023/08/20 09:44:17;;;;;;;;;;;;;;;;;;5051348;28;19920;-61
2023/08/20 09:46:43;;;;;;;;;;;;;;;;;;5050581;28;19924;-61
2023/08/20 09:49:09;;;;;;;;;;;;;;;;;;5044393;28;19929;-61
2023/08/20 09:51:35;;;;;;;;;;;;;;;;;;5044252;28;19941;-61
2023/08/20 09:54:01;;;;;;;;;;;;;;;;;;5050012;28;19933;-61
2023/08/20 09:56:28;;;;;;;;;;;;;;;;;;5053790;28;19921;-61
2023/08/20 09:58:54;;;;;;;;;;;;;;;;;;5051587;28;20008;-61
2023/08/20 10:01:20;;;;;;;;;;;;;;;;;;5049033;28;20011;-61
2023/08/20 10:03:46;;;;;;;;;;;;;;;;;;5051893;28;20316;-61
2023/08/20 10:06:12;;;;;;;;;;;;;;;;;;5044408;28;19971;-60
2023/08/20 10:08:38;;;;;;;;;;;;;;;;;;5035251;28;19921;-61
2023/08/20 10:11:03;;;;;;;;;;;;;;;;;;5044911;28;19974;-61
2023/08/20 10:13:29;;;;;;;;;;;;;;;;;;5039055;28;19925;-61
2023/08/20 10:15:55;;;;;;;;;;;;;;;;;;5046614;28;20039;-61
2023/08/20 10:18:22;;;;;;;;;;;;;;;;;;5050642;28;19974;-61
2023/08/20 10:20:47;;;;;;;;;;;;;;;;;;5051347;28;19920;-61
2023/08/20 10:23:14;;;;;;;;;;;;;;;;;;5032969;28;20017;-61
2023/08/20 10:25:40;;;;;;;;;;;;;;;;;;5035162;28;19925;-60
2023/08/20 10:28:05;;;;;;;;;;;;;;;;;;5042210;28;19969;-60
2023/08/20 10:30:31;;;;;;;;;;;;;;;;;;5050832;28;20043;-60
2023/08/20 10:32:58;;;;;;;;;;;;;;;;;;5049421;28;19924;-61
2023/08/20 10:35:24;;;;;;;;;;;;;;;;;;5047678;28;19925;-61
2023/08/20 10:37:50;;;;;;;;;;;;;;;;;;5031459;28;19978;-60
2023/08/20 10:40:16;;;;;;;;;;;;;;;;;;5049722;28;20004;-61
2023/08/20 10:42:45;;;;;;;;;;;;;;;;;;5034480;28;20381;-60
2023/08/20 10:45:10;;;;;;;;;;;;;;;;;;5039072;28;19925;-61
2023/08/20 10:47:36;;;;;;;;;;;;;;;;;;5049259;28;19921;-61
2023/08/20 10:50:02;;;;;;;;;;;;;;;;;;5044236;28;19925;-61
2023/08/20 10:52:28;;;;;;;;;;;;;;;;;;5046137;28;20266;-60
2023/08/20 10:54:54;;;;;;;;;;;;;;;;;;5050857;28;19921;-61
2023/08/20 10:57:21;;;;;;;;;;;;;;;;;;5045713;28;19949;-60
2023/08/20 10:59:54;;;;;;;;;;;;;;;;;;5102301;27;20382;-61
2023/08/20 11:02:20;;;;;;;;;;;;;;;;;;5085151;28;19924;-62
2023/08/20 11:04:46;;;;;;;;;;;;;;;;;;5086295;28;20015;-61
2023/08/20 11:07:12;;;;;;;;;;;;;;;;;;5090802;22;19911;-65
2023/08/20 11:09:40;;;;;;;;;;;;;;;;;;5099950;28;19929;-64
2023/08/20 11:12:06;;;;;;;;;;;;;;;;;;5095785;28;20272;-64
2023/08/20 11:14:32;;;;;;;;;;;;;;;;;;5091588;28;19924;-64
2023/08/20 11:16:58;;;;;;;;;;;;;;;;;;5088176;28;20007;-64
2023/08/20 11:19:24;;;;;;;;;;;;;;;;;;5050764;28;19930;-64
2023/08/20 11:21:49;;;;;;;;;;;;;;;;;;5084919;28;19920;-64
2023/08/20 11:24:15;;;;;;;;;;;;;;;;;;5087783;28;20297;-64
2023/08/20 11:26:41;;;;;;;;;;;;;;;;;;5086559;28;20443;-66
2023/08/20 11:29:07;;;;;;;;;;;;;;;;;;5087548;28;19924;-65
2023/08/20 11:31:33;;;;;;;;;;;;;;;;;;5083612;28;19948;-66
2023/08/20 11:33:59;;;;;;;;;;;;;;;;;;5086114;28;19970;-66
2023/08/20 11:36:25;;;;;;;;;;;;;;;;;;5085313;28;20388;-65
2023/08/20 11:38:52;;;;;;;;;;;;;;;;;;5082804;28;19928;-66
2023/08/20 11:41:18;;;;;;;;;;;;;;;;;;5083280;28;19942;-65
2023/08/20 11:43:43;;;;;;;;;;;;;;;;;;5086522;28;20073;-65
2023/08/20 11:46:09;;;;;;;;;;;;;;;;;;5069257;28;19924;-66
2023/08/20 11:48:36;;;;;;;;;;;;;;;;;;5086359;28;19921;-65
2023/08/20 11:51:02;;;;;;;;;;;;;;;;;;5086955;28;19943;-66
2023/08/20 11:53:28;;;;;;;;;;;;;;;;;;5087868;28;20369;-65
2023/08/20 11:55:54;;;;;;;;;;;;;;;;;;5062032;28;19931;-66
2023/08/20 11:58:21;;;;;;;;;;;;;;;;;;5087360;28;19928;-65
2023/08/20 12:00:47;;;;;;;;;;;;;;;;;;5084394;28;19924;-66
2023/08/20 12:03:13;;;;;;;;;;;;;;;;;;5069359;28;19932;-66
2023/08/20 12:05:39;;;;;;;;;;;;;;;;;;5083194;28;19943;-66
2023/08/20 12:08:05;;;;;;;;;;;;;;;;;;5086630;28;19964;-66
2023/08/20 12:10:31;;;;;;;;;;;;;;;;;;5058993;28;19951;-66
2023/08/20 12:12:57;;;;;;;;;;;;;;;;;;5073033;28;19924;-65
2023/08/20 12:15:23;;;;;;;;;;;;;;;;;;5071433;28;20045;-65
2023/08/20 12:17:48;;;;;;;;;;;;;;;;;;5058678;28;20273;-65
2023/08/20 12:20:14;;;;;;;;;;;;;;;;;;5072729;28;19974;-66
2023/08/20 12:22:40;;;;;;;;;;;;;;;;;;5073897;28;19925;-66
2023/08/20 12:25:06;;;;;;;;;;;;;;;;;;5070284;28;20380;-66
2023/08/20 12:27:32;;;;;;;;;;;;;;;;;;5053314;28;19921;-66
2023/08/20 12:29:58;;;;;;;;;;;;;;;;;;5056560;28;19929;-65
2023/08/20 12:32:24;;;;;;;;;;;;;;;;;;5073891;28;19970;-66
2023/08/20 12:34:50;;;;;;;;;;;;;;;;;;5071408;28;19921;-66
2023/08/20 12:37:16;;;;;;;;;;;;;;;;;;5069269;28;19935;-65
2023/08/20 12:39:42;;;;;;;;;;;;;;;;;;5070658;28;19968;-65
2023/08/20 12:42:08;;;;;;;;;;;;;;;;;;5073146;28;20368;-65
2023/08/20 12:44:34;;;;;;;;;;;;;;;;;;5070942;28;19956;-65
2023/08/20 12:46:59;;;;;;;;;;;;;;;;;;5071634;28;20002;-66
2023/08/20 12:49:25;;;;;;;;;;;;;;;;;;5049321;28;20007;-66
2023/08/20 12:51:51;;;;;;;;;;;;;;;;;;5068110;28;19928;-66
2023/08/20 12:54:17;;;;;;;;;;;;;;;;;;5046265;28;20015;-66
2023/08/20 12:56:43;;;;;;;;;;;;;;;;;;5070869;28;20004;-66
2023/08/20 12:59:09;;;;;;;;;;;;;;;;;;5062814;28;19936;-66
2023/08/20 13:01:35;;;;;;;;;;;;;;;;;;5066835;28;19924;-65
2023/08/20 13:04:02;;;;;;;;;;;;;;;;;;5071453;28;19958;-66
2023/08/20 13:06:28;;;;;;;;;;;;;;;;;;5069278;28;19931;-65
2023/08/20 13:08:54;;;;;;;;;;;;;;;;;;5055261;28;19925;-64
2023/08/20 13:11:20;;;;;;;;;;;;;;;;;;5068887;28;20994;-65
2023/08/20 13:13:46;;;;;;;;;;;;;;;;;;5071278;28;19920;-65
2023/08/20 13:16:12;;;;;;;;;;;;;;;;;;5070328;28;20005;-65
2023/08/20 13:18:38;;;;;;;;;;;;;;;;;;5073032;28;19928;-65
2023/08/20 13:21:04;;;;;;;;;;;;;;;;;;5067558;28;19927;-64
2023/08/20 13:23:29;;;;;;;;;;;;;;;;;;5070483;28;20285;-64
2023/08/20 13:25:55;;;;;;;;;;;;;;;;;;5072908;28;19994;-65
2023/08/20 13:28:21;;;;;;;;;;;;;;;;;;5068766;28;19956;-65
2023/08/20 13:30:47;;;;;;;;;;;;;;;;;;5066064;28;19924;-65
2023/08/20 13:33:14;;;;;;;;;;;;;;;;;;5069650;28;19931;-64
2023/08/20 13:35:40;;;;;;;;;;;;;;;;;;5060188;28;19920;-65
2023/08/20 13:38:06;;;;;;;;;;;;;;;;;;5054037;28;19970;-65
2023/08/20 13:40:32;;;;;;;;;;;;;;;;;;5067210;28;20358;-65
2023/08/20 13:42:58;;;;;;;;;;;;;;;;;;5071280;28;19935;-65
2023/08/20 13:45:24;;;;;;;;;;;;;;;;;;5069767;28;19947;-65
2023/08/20 13:47:50;;;;;;;;;;;;;;;;;;5050921;28;19967;-65
2023/08/20 13:50:16;;;;;;;;;;;;;;;;;;5072728;28;20035;-65
2023/08/20 13:52:42;;;;;;;;;;;;;;;;;;5057590;28;20003;-65
2023/08/20 13:55:07;;;;;;;;;;;;;;;;;;5068192;28;21713;-65
2023/08/20 13:57:33;;;;;;;;;;;;;;;;;;5071859;28;19920;-65
2023/08/20 13:59:59;;;;;;;;;;;;;;;;;;5064086;28;19955;-65
2023/08/20 14:02:25;;;;;;;;;;;;;;;;;;5065404;28;19924;-64
2023/08/20 14:04:51;;;;;;;;;;;;;;;;;;5071187;28;19927;-65
2023/08/20 14:07:17;;;;;;;;;;;;;;;;;;5052164;28;20658;-64
2023/08/20 14:09:43;;;;;;;;;;;;;;;;;;5063836;28;19925;-66
2023/08/20 14:12:09;;;;;;;;;;;;;;;;;;5067597;28;20057;-66
2023/08/20 14:14:35;;;;;;;;;;;;;;;;;;5066661;28;19999;-66
2023/08/20 14:17:01;;;;;;;;;;;;;;;;;;5071028;28;19926;-66
2023/08/20 14:19:26;;;;;;;;;;;;;;;;;;5070400;28;19925;-65
2023/08/20 14:21:52;;;;;;;;;;;;;;;;;;5071710;28;20325;-65
2023/08/20 14:24:18;;;;;;;;;;;;;;;;;;5068337;28;19927;-65
2023/08/20 14:26:44;;;;;;;;;;;;;;;;;;5070914;28;19927;-64
2023/08/20 14:29:10;;;;;;;;;;;;;;;;;;5064876;28;19920;-65
2023/08/20 14:31:36;;;;;;;;;;;;;;;;;;5070685;28;19947;-64
2023/08/20 14:34:02;;;;;;;;;;;;;;;;;;5049215;28;19921;-65
2023/08/20 14:36:28;;;;;;;;;;;;;;;;;;5071034;28;19925;-65
2023/08/20 14:38:54;;;;;;;;;;;;;;;;;;5069830;28;19928;-66
2023/08/20 14:41:20;;;;;;;;;;;;;;;;;;5052537;28;20347;-65
2023/08/20 14:43:46;;;;;;;;;;;;;;;;;;5069071;28;19981;-66
2023/08/20 14:46:11;;;;;;;;;;;;;;;;;;5068603;28;19943;-65
2023/08/20 14:48:41;;;;;;;;;;;;;;;;;;5051477;28;20004;-65
2023/08/20 14:51:06;;;;;;;;;;;;;;;;;;5067893;28;20372;-66
2023/08/20 14:53:32;;;;;;;;;;;;;;;;;;5063585;28;19952;-65
2023/08/20 14:55:58;;;;;;;;;;;;;;;;;;5060143;28;19990;-65
2023/08/20 14:58:24;;;;;;;;;;;;;;;;;;5067977;28;19932;-65
2023/08/20 15:00:50;;;;;;;;;;;;;;;;;;5061055;28;20562;-65
2023/08/20 15:03:16;;;;;;;;;;;;;;;;;;5066051;28;20019;-65
2023/08/20 15:05:42;;;;;;;;;;;;;;;;;;5061174;28;19921;-65
2023/08/20 15:08:08;;;;;;;;;;;;;;;;;;5067013;28;20384;-65
2023/08/20 15:10:34;;;;;;;;;;;;;;;;;;5069472;28;19928;-65
2023/08/20 15:13:00;;;;;;;;;;;;;;;;;;5069483;28;19927;-65
2023/08/20 15:15:28;;;;;;;;;;;;;;;;;;5053340;28;20364;-65
2023/08/20 15:17:54;;;;;;;;;;;;;;;;;;5049152;28;20289;-66
2023/08/20 15:20:20;;;;;;;;;;;;;;;;;;5071316;28;19924;-66
2023/08/20 15:22:46;;;;;;;;;;;;;;;;;;5068872;28;19925;-66
2023/08/20 15:25:12;;;;;;;;;;;;;;;;;;5067659;28;20414;-65
2023/08/20 15:27:38;;;;;;;;;;;;;;;;;;5062484;28;19931;-65
2023/08/20 15:30:04;;;;;;;;;;;;;;;;;;5066814;28;19924;-65
2023/08/20 15:32:29;;;;;;;;;;;;;;;;;;5066750;28;19921;-65
2023/08/20 15:34:55;;;;;;;;;;;;;;;;;;5065795;28;20407;-65
2023/08/20 15:37:21;;;;;;;;;;;;;;;;;;5066411;28;19920;-65
2023/08/20 15:39:47;;;;;;;;;;;;;;;;;;5066566;28;19939;-65
2023/08/20 15:42:13;;;;;;;;;;;;;;;;;;5080463;28;19963;-65
2023/08/20 15:44:39;;;;;;;;;;;;;;;;;;5067696;28;20342;-65
2023/08/20 15:47:05;;;;;;;;;;;;;;;;;;5072667;28;19966;-65
2023/08/20 15:49:31;;;;;;;;;;;;;;;;;;5053878;28;19928;-65
2023/08/20 15:51:57;;;;;;;;;;;;;;;;;;5054589;28;20393;-65
2023/08/20 15:54:25;;;;;;;;;;;;;;;;;;5070509;28;19928;-65
2023/08/20 15:56:51;;;;;;;;;;;;;;;;;;5070146;28;19921;-66
2023/08/20 15:59:17;;;;;;;;;;;;;;;;;;5070232;28;19944;-65
2023/08/20 16:01:43;;;;;;;;;;;;;;;;;;5069168;28;20365;-66
2023/08/20 16:04:09;;;;;;;;;;;;;;;;;;5068892;28;20297;-66
2023/08/20 16:06:35;;;;;;;;;;;;;;;;;;5072417;28;19946;-65
2023/08/20 16:09:00;;;;;;;;;;;;;;;;;;5074185;28;20395;-65
2023/08/20 16:11:26;;;;;;;;;;;;;;;;;;5073084;28;19924;-66
2023/08/20 16:13:52;;;;;;;;;;;;;;;;;;5073308;28;19997;-65
2023/08/20 16:16:18;;;;;;;;;;;;;;;;;;5072116;28;19959;-65
2023/08/20 16:18:44;;;;;;;;;;;;;;;;;;5054418;28;19925;-65
2023/08/20 16:21:10;;;;;;;;;;;;;;;;;;5067538;28;20390;-66
2023/08/20 16:23:36;;;;;;;;;;;;;;;;;;5072747;28;19975;-66
2023/08/20 16:26:03;;;;;;;;;;;;;;;;;;5064373;28;21617;-66
2023/08/20 16:28:29;;;;;;;;;;;;;;;;;;5070156;28;19959;-66
2023/08/20 16:30:55;;;;;;;;;;;;;;;;;;5054523;28;19959;-66
2023/08/20 16:33:23;;;;;;;;;;;;;;;;;;5072170;28;19921;-66
2023/08/20 16:35:49;;;;;;;;;;;;;;;;;;5069363;28;19927;-66